createdAt,value
2023-01-25T00:02:59.599Z,1.32
2023-01-25T00:08:21.327Z,1.40
2023-01-25T00:13:42.243Z,1.33
2023-01-25T00:19:03.157Z,1.32
2023-01-25T00:24:25.912Z,1.31
2023-01-25T00:29:47.090Z,1.26
2023-01-25T00:35:12.469Z,1.12
2023-01-25T00:40:33.383Z,1.04
2023-01-25T00:46:00.714Z,1.05
2023-01-25T00:51:22.377Z,1.11
2023-01-25T00:56:43.396Z,1.07
2023-01-25T01:02:04.419Z,1.15
2023-01-25T01:07:25.301Z,1.09
2023-01-25T01:12:46.053Z,1.14
2023-01-25T01:18:06.897Z,1.10
2023-01-25T01:23:31.719Z,1.05
2023-01-25T01:28:52.389Z,1.02
2023-01-25T01:34:14.917Z,1.09
2023-01-25T01:39:35.875Z,1.08
2023-01-25T01:44:56.733Z,1.07
2023-01-25T01:50:24.081Z,1.01
2023-01-25T01:55:47.461Z,0.94
2023-01-25T02:01:08.201Z,0.98
2023-01-25T02:06:39.701Z,1.02
2023-01-25T02:12:00.971Z,1.00
2023-01-25T02:17:29.981Z,0.97
2023-01-25T02:23:18.225Z,0.97
2023-01-25T02:28:39.117Z,1.01
2023-01-25T02:33:59.866Z,1.05
2023-01-25T02:39:21.195Z,1.11
2023-01-25T02:44:44.225Z,1.14
2023-01-25T02:50:05.771Z,1.24
2023-01-25T02:55:26.868Z,1.26
2023-01-25T03:00:47.756Z,1.26
2023-01-25T03:06:08.841Z,1.26
2023-01-25T03:11:29.775Z,1.33
2023-01-25T03:16:52.533Z,1.29
2023-01-25T03:22:16.277Z,1.46
2023-01-25T03:27:37.396Z,1.60
2023-01-25T03:33:02.743Z,1.66
2023-01-25T03:38:23.944Z,1.79
2023-01-25T03:43:45.251Z,2.01
2023-01-25T03:49:10.111Z,2.13
2023-01-25T03:54:31.913Z,2.34
2023-01-25T03:59:52.641Z,2.32
2023-01-25T04:05:15.467Z,2.27
2023-01-25T04:10:36.766Z,2.10
2023-01-25T04:15:59.070Z,1.95
2023-01-25T04:21:42.489Z,1.89
2023-01-25T04:27:03.533Z,1.81
2023-01-25T04:32:28.766Z,1.72
2023-01-25T04:37:56.445Z,1.85
2023-01-25T04:43:20.918Z,1.87
2023-01-25T04:48:44.032Z,1.84
2023-01-25T04:54:05.282Z,1.78
2023-01-25T04:59:28.085Z,1.66
2023-01-25T05:04:49.374Z,1.64
2023-01-25T05:10:12.297Z,1.56
2023-01-25T05:15:42.026Z,1.49
2023-01-25T05:21:02.660Z,1.55
2023-01-25T05:26:41.861Z,1.60
2023-01-25T05:32:05.870Z,1.56
2023-01-25T05:37:26.665Z,1.55
2023-01-25T05:42:59.956Z,1.48
2023-01-25T05:48:23.150Z,1.49
2023-01-25T05:53:44.398Z,1.62
2023-01-25T05:59:05.414Z,1.64
2023-01-25T06:04:26.248Z,1.67
2023-01-25T06:09:47.436Z,1.57
2023-01-25T06:15:08.768Z,1.65
2023-01-25T06:20:30.464Z,1.80
2023-01-25T06:26:06.005Z,1.83
2023-01-25T06:31:26.810Z,1.83
2023-01-25T06:36:48.590Z,1.80
2023-01-25T06:42:09.640Z,1.79
2023-01-25T06:47:30.264Z,1.73
2023-01-25T06:52:54.916Z,1.55
2023-01-25T06:58:15.944Z,1.66
2023-01-25T07:03:36.620Z,1.90
2023-01-25T07:09:05.935Z,2.02
2023-01-25T07:14:26.654Z,2.03
2023-01-25T07:19:48.020Z,2.03
2023-01-25T07:25:09.383Z,1.92
2023-01-25T07:30:30.500Z,1.87
2023-01-25T07:35:51.369Z,1.86
2023-01-25T07:41:13.108Z,2.03
2023-01-25T07:46:34.081Z,2.07
2023-01-25T07:51:54.838Z,2.17
2023-01-25T07:57:15.415Z,2.23
2023-01-25T08:02:36.347Z,2.30
2023-01-25T08:07:56.987Z,2.23
2023-01-25T08:13:17.821Z,2.29
2023-01-25T08:18:38.502Z,2.33
2023-01-25T08:24:00.981Z,2.39
2023-01-25T08:29:21.716Z,2.48
2023-01-25T08:34:42.490Z,2.53
2023-01-25T08:40:04.038Z,2.51
2023-01-25T08:45:25.002Z,2.52
2023-01-25T08:50:47.416Z,2.65
2023-01-25T08:56:14.279Z,2.67
2023-01-25T09:01:35.228Z,2.58
2023-01-25T09:06:56.173Z,2.52
2023-01-25T09:12:16.866Z,2.55
2023-01-25T09:17:39.132Z,2.61
2023-01-25T09:22:59.755Z,2.65
2023-01-25T09:28:20.457Z,2.66
2023-01-25T09:33:42.052Z,2.77
2023-01-25T09:39:03.508Z,2.80
2023-01-25T09:44:38.150Z,2.64
2023-01-25T09:50:20.174Z,2.61
2023-01-25T09:55:42.053Z,2.27
2023-01-25T10:01:19.563Z,2.17
2023-01-25T10:06:59.791Z,2.15
2023-01-25T10:12:23.963Z,2.20
2023-01-25T10:17:45.534Z,2.25
2023-01-25T10:23:12.343Z,2.37
2023-01-25T10:28:52.283Z,2.39
2023-01-25T10:34:19.147Z,2.31
2023-01-25T10:39:49.495Z,2.33
2023-01-25T10:45:14.669Z,2.32
2023-01-25T10:50:46.336Z,2.29
2023-01-25T10:56:19.717Z,2.38
2023-01-25T11:01:40.966Z,2.26
2023-01-25T11:07:06.179Z,2.24
2023-01-25T11:12:27.271Z,2.21
2023-01-25T11:18:05.419Z,2.28
2023-01-25T11:23:26.974Z,2.47
2023-01-25T11:28:49.158Z,2.52
2023-01-25T11:34:16.055Z,2.55
2023-01-25T11:39:39.980Z,2.51
2023-01-25T11:45:23.244Z,2.55
2023-01-25T11:51:01.958Z,2.61
2023-01-25T11:56:49.163Z,2.64
2023-01-25T12:02:31.894Z,2.65
2023-01-25T12:07:58.828Z,2.68
2023-01-25T12:14:02.149Z,2.56
2023-01-25T12:19:34.977Z,2.29
2023-01-25T12:24:58.849Z,2.00
2023-01-25T12:30:55.602Z,1.76
2023-01-25T12:36:28.900Z,1.74
2023-01-25T12:42:02.603Z,1.83
2023-01-25T12:47:58.782Z,1.99
2023-01-25T12:53:42.481Z,2.15
2023-01-25T12:59:14.703Z,2.21
2023-01-25T13:04:53.377Z,2.15
2023-01-25T13:10:21.057Z,1.96
2023-01-25T13:15:44.399Z,1.85
2023-01-25T13:21:11.536Z,1.94
2023-01-25T13:26:47.264Z,2.03
2023-01-25T13:32:12.522Z,2.16
2023-01-25T13:37:34.662Z,2.12
2023-01-25T13:43:04.195Z,2.16
2023-01-25T13:48:27.826Z,2.13
2023-01-25T13:53:56.788Z,2.21
2023-01-25T13:59:25.883Z,2.24
2023-01-25T14:04:49.674Z,2.21
2023-01-25T14:10:15.709Z,2.24
2023-01-25T14:15:36.675Z,2.11
2023-01-25T14:21:18.431Z,1.98
2023-01-25T14:26:42.057Z,2.04
2023-01-25T14:32:03.700Z,2.13
2023-01-25T14:37:24.564Z,2.31
2023-01-25T14:42:45.354Z,2.32
2023-01-25T14:48:06.108Z,2.10
2023-01-25T14:53:26.888Z,1.88
2023-01-25T14:58:50.902Z,1.68
2023-01-25T15:04:19.208Z,1.69
2023-01-25T15:09:44.556Z,1.58
2023-01-25T15:15:20.870Z,1.53
2023-01-25T15:20:41.950Z,2.09
2023-01-25T15:26:11.979Z,1.78
2023-01-25T15:31:36.152Z,1.62
2023-01-25T15:36:57.246Z,1.43
2023-01-25T15:42:17.771Z,1.43
2023-01-25T15:47:39.181Z,1.68
2023-01-25T15:53:00.439Z,1.65
2023-01-25T15:58:26.076Z,1.49
2023-01-25T16:03:47.443Z,2.79
2023-01-25T16:09:20.322Z,3.17
2023-01-25T16:14:41.066Z,2.18
2023-01-25T16:20:01.863Z,1.47
2023-01-25T16:25:22.916Z,1.39
2023-01-25T16:30:46.905Z,1.56
2023-01-25T16:36:15.976Z,1.37
2023-01-25T16:41:36.942Z,1.12
2023-01-25T16:46:58.083Z,1.04
2023-01-25T16:52:18.803Z,1.11
2023-01-25T16:57:43.671Z,1.41
2023-01-25T17:03:05.115Z,1.26
2023-01-25T17:08:25.726Z,1.14
2023-01-25T17:13:54.520Z,1.22
2023-01-25T17:19:17.073Z,1.33
2023-01-25T17:24:38.392Z,1.25
2023-01-25T17:29:59.385Z,1.27
2023-01-25T17:35:20.159Z,1.23
2023-01-25T17:40:40.967Z,1.05
2023-01-25T17:46:11.932Z,0.81
2023-01-25T17:51:34.252Z,0.82
2023-01-25T17:56:55.121Z,0.68
2023-01-25T18:02:16.004Z,0.59
2023-01-25T18:07:36.747Z,0.53
2023-01-25T18:13:04.524Z,0.50
2023-01-25T18:18:25.334Z,0.63
2023-01-25T18:23:47.363Z,0.83
2023-01-25T18:29:08.247Z,0.87
2023-01-25T18:34:28.896Z,1.03
2023-01-25T18:39:52.522Z,1.12
2023-01-25T18:45:14.682Z,1.08
2023-01-25T18:50:39.097Z,0.81
2023-01-25T18:56:04.528Z,0.52
2023-01-25T19:01:25.508Z,0.45
2023-01-25T19:06:46.888Z,0.42
2023-01-25T19:12:07.933Z,0.43
2023-01-25T19:17:28.584Z,0.49
2023-01-25T19:22:49.521Z,0.50
2023-01-25T19:28:10.675Z,0.52
2023-01-25T19:33:31.363Z,0.47
2023-01-25T19:38:52.650Z,0.41
2023-01-25T19:44:14.388Z,0.32
2023-01-25T19:49:35.298Z,0.43
2023-01-25T19:54:55.897Z,0.65
2023-01-25T20:00:16.691Z,0.83
2023-01-25T20:05:37.263Z,0.93
2023-01-25T20:11:02.560Z,0.73
2023-01-25T20:16:25.146Z,0.48
2023-01-25T20:21:46.074Z,0.38
2023-01-25T20:27:07.476Z,0.29
2023-01-25T20:32:33.167Z,0.25
2023-01-25T20:37:54.359Z,0.24
2023-01-25T20:43:15.190Z,0.29
2023-01-25T20:48:36.469Z,0.38
2023-01-25T20:53:59.827Z,0.52
2023-01-25T20:59:20.595Z,1.02
2023-01-25T21:04:41.246Z,0.84
2023-01-25T21:10:01.982Z,0.96
2023-01-25T21:15:25.326Z,1.17
2023-01-25T21:20:46.596Z,1.30
2023-01-25T21:26:10.356Z,1.21
2023-01-25T21:31:36.530Z,0.93
2023-01-25T21:36:57.420Z,0.87
2023-01-25T21:42:18.766Z,0.74
2023-01-25T21:47:39.694Z,0.98
2023-01-25T21:53:00.822Z,0.77
2023-01-25T21:58:21.572Z,0.60
2023-01-25T22:03:42.261Z,0.61
2023-01-25T22:09:03.338Z,0.72
2023-01-25T22:14:24.315Z,0.60
2023-01-25T22:19:44.951Z,0.75
2023-01-25T22:25:06.028Z,0.78
2023-01-25T22:30:27.080Z,0.71
2023-01-25T22:35:47.805Z,0.52
2023-01-25T22:41:20.216Z,0.49
2023-01-25T22:46:41.138Z,0.43
2023-01-25T22:52:01.921Z,0.57
2023-01-25T22:57:22.762Z,0.78
2023-01-25T23:02:43.662Z,0.94
2023-01-25T23:08:04.665Z,1.13
2023-01-25T23:13:25.646Z,1.09
2023-01-25T23:18:52.201Z,0.93
2023-01-25T23:24:13.209Z,1.05
2023-01-25T23:29:33.859Z,1.02
2023-01-25T23:34:54.518Z,0.99
2023-01-25T23:40:16.076Z,1.04
2023-01-25T23:45:36.893Z,0.93
2023-01-25T23:50:58.553Z,0.66
2023-01-25T23:56:21.583Z,0.56
